sensor_id;sensor_type;location;lat;lon;timestamp;pressure;altitude;pressure_sealevel;temperature;humidity
55517;BME280;41724;51.176;-0.708;2023-05-27T00:01:50;102500.10;;;13.38;48.97
55517;BME280;41724;51.176;-0.708;2023-05-27T00:04:17;102501.28;;;13.40;48.95
55517;BME280;41724;51.176;-0.708;2023-05-27T00:06:44;102503.06;;;13.27;49.17
55517;BME280;41724;51.176;-0.708;2023-05-27T00:09:11;102493.75;;;13.46;48.50
55517;BME280;41724;51.176;-0.708;2023-05-27T00:11:37;102495.68;;;13.55;48.01
55517;BME280;41724;51.176;-0.708;2023-05-27T00:14:05;102493.18;;;13.72;47.90
55517;BME280;41724;51.176;-0.708;2023-05-27T00:16:31;102498.05;;;13.27;48.14
55517;BME280;41724;51.176;-0.708;2023-05-27T00:18:58;102491.89;;;13.35;48.20
55517;BME280;41724;51.176;-0.708;2023-05-27T00:21:26;102489.25;;;13.14;48.73
55517;BME280;41724;51.176;-0.708;2023-05-27T00:23:53;102482.38;;;13.32;48.16
55517;BME280;41724;51.176;-0.708;2023-05-27T00:26:20;102483.25;;;13.52;48.47
55517;BME280;41724;51.176;-0.708;2023-05-27T00:28:48;102481.60;;;13.79;49.13
55517;BME280;41724;51.176;-0.708;2023-05-27T00:31:14;102484.55;;;13.50;50.04
55517;BME280;41724;51.176;-0.708;2023-05-27T00:33:42;102481.13;;;12.84;51.29
55517;BME280;41724;51.176;-0.708;2023-05-27T00:36:09;102481.12;;;13.19;51.58
55517;BME280;41724;51.176;-0.708;2023-05-27T00:38:36;102483.12;;;13.37;51.04
55517;BME280;41724;51.176;-0.708;2023-05-27T00:41:03;102483.40;;;13.23;50.96
55517;BME280;41724;51.176;-0.708;2023-05-27T00:43:31;102481.47;;;13.46;50.75
55517;BME280;41724;51.176;-0.708;2023-05-27T00:45:57;102474.38;;;13.26;51.56
55517;BME280;41724;51.176;-0.708;2023-05-27T00:48:24;102473.22;;;13.11;51.35
55517;BME280;41724;51.176;-0.708;2023-05-27T00:50:52;102470.57;;;13.23;51.28
55517;BME280;41724;51.176;-0.708;2023-05-27T00:53:20;102468.02;;;13.19;51.65
55517;BME280;41724;51.176;-0.708;2023-05-27T00:55:47;102468.33;;;12.70;51.95
55517;BME280;41724;51.176;-0.708;2023-05-27T00:58:15;102466.37;;;12.95;51.54
55517;BME280;41724;51.176;-0.708;2023-05-27T01:00:43;102464.26;;;13.28;51.40
55517;BME280;41724;51.176;-0.708;2023-05-27T01:03:10;102462.18;;;13.29;51.82
55517;BME280;41724;51.176;-0.708;2023-05-27T01:05:38;102458.51;;;13.29;52.56
55517;BME280;41724;51.176;-0.708;2023-05-27T01:08:17;102456.08;;;13.10;52.33
55517;BME280;41724;51.176;-0.708;2023-05-27T01:10:52;102450.32;;;13.25;52.48
55517;BME280;41724;51.176;-0.708;2023-05-27T01:13:29;102448.89;;;13.01;52.51
55517;BME280;41724;51.176;-0.708;2023-05-27T01:15:59;102446.23;;;13.07;52.24
55517;BME280;41724;51.176;-0.708;2023-05-27T01:18:29;102442.51;;;13.33;52.05
55517;BME280;41724;51.176;-0.708;2023-05-27T01:21:04;102439.18;;;13.22;52.21
55517;BME280;41724;51.176;-0.708;2023-05-27T01:23:32;102438.06;;;13.16;52.25
55517;BME280;41724;51.176;-0.708;2023-05-27T01:25:59;102436.74;;;13.76;51.53
55517;BME280;41724;51.176;-0.708;2023-05-27T01:28:26;102433.26;;;13.39;50.90
55517;BME280;41724;51.176;-0.708;2023-05-27T01:30:57;102434.89;;;13.49;50.97
55517;BME280;41724;51.176;-0.708;2023-05-27T01:33:28;102430.57;;;13.16;50.86
55517;BME280;41724;51.176;-0.708;2023-05-27T01:36:02;102430.14;;;13.52;50.67
55517;BME280;41724;51.176;-0.708;2023-05-27T01:38:32;102426.18;;;13.46;50.56
55517;BME280;41724;51.176;-0.708;2023-05-27T01:41:00;102420.35;;;13.41;50.52
55517;BME280;41724;51.176;-0.708;2023-05-27T01:43:28;102419.85;;;13.35;50.30
55517;BME280;41724;51.176;-0.708;2023-05-27T01:45:56;102421.24;;;13.16;50.67
55517;BME280;41724;51.176;-0.708;2023-05-27T01:48:23;102422.27;;;12.98;51.11
55517;BME280;41724;51.176;-0.708;2023-05-27T01:50:50;102422.91;;;13.01;50.55
55517;BME280;41724;51.176;-0.708;2023-05-27T01:53:17;102423.33;;;12.89;50.59
55517;BME280;41724;51.176;-0.708;2023-05-27T01:55:44;102420.93;;;12.67;50.95
55517;BME280;41724;51.176;-0.708;2023-05-27T01:58:12;102421.17;;;12.62;50.93
55517;BME280;41724;51.176;-0.708;2023-05-27T02:00:39;102417.27;;;12.89;49.71
55517;BME280;41724;51.176;-0.708;2023-05-27T02:03:06;102415.84;;;12.58;49.96
55517;BME280;41724;51.176;-0.708;2023-05-27T02:05:33;102415.80;;;12.50;49.77
55517;BME280;41724;51.176;-0.708;2023-05-27T02:08:00;102415.40;;;12.57;50.16
55517;BME280;41724;51.176;-0.708;2023-05-27T02:10:28;102418.42;;;12.78;49.89
55517;BME280;41724;51.176;-0.708;2023-05-27T02:12:55;102414.27;;;12.45;50.21
55517;BME280;41724;51.176;-0.708;2023-05-27T02:15:22;102413.50;;;12.45;51.20
55517;BME280;41724;51.176;-0.708;2023-05-27T02:17:49;102413.04;;;12.14;50.50
55517;BME280;41724;51.176;-0.708;2023-05-27T02:20:16;102409.54;;;12.08;50.92
55517;BME280;41724;51.176;-0.708;2023-05-27T02:22:44;102411.15;;;12.10;50.99
55517;BME280;41724;51.176;-0.708;2023-05-27T02:25:11;102406.97;;;12.16;51.26
55517;BME280;41724;51.176;-0.708;2023-05-27T02:27:38;102401.97;;;11.76;51.89
55517;BME280;41724;51.176;-0.708;2023-05-27T02:30:07;102397.09;;;11.85;51.34
55517;BME280;41724;51.176;-0.708;2023-05-27T02:32:34;102396.54;;;11.89;51.17
55517;BME280;41724;51.176;-0.708;2023-05-27T02:35:01;102395.77;;;11.49;51.10
55517;BME280;41724;51.176;-0.708;2023-05-27T02:37:28;102396.66;;;11.70;50.66
55517;BME280;41724;51.176;-0.708;2023-05-27T02:39:55;102396.21;;;11.38;50.93
55517;BME280;41724;51.176;-0.708;2023-05-27T02:42:23;102391.58;;;11.45;51.65
55517;BME280;41724;51.176;-0.708;2023-05-27T02:44:50;102392.11;;;11.49;50.87
55517;BME280;41724;51.176;-0.708;2023-05-27T02:47:17;102391.64;;;11.54;51.04
55517;BME280;41724;51.176;-0.708;2023-05-27T02:49:44;102393.97;;;11.19;50.27
55517;BME280;41724;51.176;-0.708;2023-05-27T02:52:11;102395.00;;;11.49;50.82
55517;BME280;41724;51.176;-0.708;2023-05-27T02:54:38;102391.93;;;11.17;51.05
55517;BME280;41724;51.176;-0.708;2023-05-27T02:57:05;102393.40;;;11.21;51.01
55517;BME280;41724;51.176;-0.708;2023-05-27T02:59:32;102392.74;;;10.99;50.84
55517;BME280;41724;51.176;-0.708;2023-05-27T03:01:59;102391.66;;;10.90;50.27
55517;BME280;41724;51.176;-0.708;2023-05-27T03:04:26;102392.98;;;10.93;50.28
55517;BME280;41724;51.176;-0.708;2023-05-27T03:06:54;102390.39;;;11.36;50.45
55517;BME280;41724;51.176;-0.708;2023-05-27T03:09:21;102390.36;;;10.56;51.20
55517;BME280;41724;51.176;-0.708;2023-05-27T03:11:48;102391.87;;;11.01;51.30
55517;BME280;41724;51.176;-0.708;2023-05-27T03:14:15;102392.27;;;11.15;50.31
55517;BME280;41724;51.176;-0.708;2023-05-27T03:16:42;102388.62;;;11.13;50.40
55517;BME280;41724;51.176;-0.708;2023-05-27T03:19:09;102391.12;;;11.22;50.14
55517;BME280;41724;51.176;-0.708;2023-05-27T03:21:36;102388.97;;;10.71;50.62
55517;BME280;41724;51.176;-0.708;2023-05-27T03:24:04;102386.81;;;10.78;50.25
55517;BME280;41724;51.176;-0.708;2023-05-27T03:26:31;102392.23;;;10.66;50.27
55517;BME280;41724;51.176;-0.708;2023-05-27T03:28:58;102391.47;;;10.96;50.32
55517;BME280;41724;51.176;-0.708;2023-05-27T03:31:25;102392.52;;;11.18;50.56
55517;BME280;41724;51.176;-0.708;2023-05-27T03:33:52;102390.16;;;11.07;50.06
55517;BME280;41724;51.176;-0.708;2023-05-27T03:36:19;102390.91;;;11.12;50.58
55517;BME280;41724;51.176;-0.708;2023-05-27T03:38:47;102393.79;;;11.06;50.96
55517;BME280;41724;51.176;-0.708;2023-05-27T03:41:14;102394.78;;;10.61;51.12
55517;BME280;41724;51.176;-0.708;2023-05-27T03:43:41;102393.53;;;10.98;51.34
55517;BME280;41724;51.176;-0.708;2023-05-27T03:46:08;102396.51;;;10.68;50.86
55517;BME280;41724;51.176;-0.708;2023-05-27T03:48:35;102390.83;;;11.09;50.59
55517;BME280;41724;51.176;-0.708;2023-05-27T03:51:02;102392.51;;;10.88;50.41
55517;BME280;41724;51.176;-0.708;2023-05-27T03:53:29;102389.27;;;11.53;50.19
55517;BME280;41724;51.176;-0.708;2023-05-27T03:55:56;102385.92;;;11.45;49.87
55517;BME280;41724;51.176;-0.708;2023-05-27T03:58:23;102380.63;;;11.65;49.89
55517;BME280;41724;51.176;-0.708;2023-05-27T04:00:51;102382.76;;;10.97;50.76
55517;BME280;41724;51.176;-0.708;2023-05-27T04:03:18;102379.86;;;11.36;50.30
55517;BME280;41724;51.176;-0.708;2023-05-27T04:05:45;102381.12;;;11.12;50.78
55517;BME280;41724;51.176;-0.708;2023-05-27T04:08:12;102383.37;;;11.54;50.06
55517;BME280;41724;51.176;-0.708;2023-05-27T04:10:39;102382.21;;;11.65;49.89
55517;BME280;41724;51.176;-0.708;2023-05-27T04:13:05;102380.04;;;11.59;50.01
55517;BME280;41724;51.176;-0.708;2023-05-27T04:15:33;102375.71;;;11.69;50.13
55517;BME280;41724;51.176;-0.708;2023-05-27T04:18:01;102373.75;;;11.85;50.11
55517;BME280;41724;51.176;-0.708;2023-05-27T04:20:35;102376.25;;;11.89;50.36
55517;BME280;41724;51.176;-0.708;2023-05-27T04:23:01;102372.32;;;11.71;51.21
55517;BME280;41724;51.176;-0.708;2023-05-27T04:25:28;102372.68;;;12.01;50.84
55517;BME280;41724;51.176;-0.708;2023-05-27T04:27:55;102370.22;;;11.57;51.54
55517;BME280;41724;51.176;-0.708;2023-05-27T04:30:23;102366.28;;;12.15;51.14
55517;BME280;41724;51.176;-0.708;2023-05-27T04:32:50;102365.95;;;12.34;50.76
55517;BME280;41724;51.176;-0.708;2023-05-27T04:35:17;102363.86;;;12.31;51.52
55517;BME280;41724;51.176;-0.708;2023-05-27T04:37:44;102364.26;;;12.39;51.04
55517;BME280;41724;51.176;-0.708;2023-05-27T04:40:12;102364.72;;;12.43;51.29
55517;BME280;41724;51.176;-0.708;2023-05-27T04:42:38;102368.34;;;12.34;52.42
55517;BME280;41724;51.176;-0.708;2023-05-27T04:45:07;102367.72;;;12.05;51.84
55517;BME280;41724;51.176;-0.708;2023-05-27T04:47:34;102367.53;;;12.62;52.35
55517;BME280;41724;51.176;-0.708;2023-05-27T04:50:01;102369.23;;;12.79;52.30
55517;BME280;41724;51.176;-0.708;2023-05-27T04:52:29;102372.45;;;12.90;52.22
55517;BME280;41724;51.176;-0.708;2023-05-27T04:54:56;102373.13;;;12.81;51.70
55517;BME280;41724;51.176;-0.708;2023-05-27T04:57:23;102371.89;;;12.94;51.68
55517;BME280;41724;51.176;-0.708;2023-05-27T04:59:50;102374.20;;;13.10;51.87
55517;BME280;41724;51.176;-0.708;2023-05-27T05:02:17;102377.36;;;12.97;52.24
55517;BME280;41724;51.176;-0.708;2023-05-27T05:04:44;102380.16;;;13.08;52.52
55517;BME280;41724;51.176;-0.708;2023-05-27T05:07:11;102378.42;;;12.98;52.73
55517;BME280;41724;51.176;-0.708;2023-05-27T05:09:38;102377.76;;;13.45;52.76
55517;BME280;41724;51.176;-0.708;2023-05-27T05:12:06;102375.21;;;13.79;52.52
55517;BME280;41724;51.176;-0.708;2023-05-27T05:14:33;102377.47;;;13.77;52.84
55517;BME280;41724;51.176;-0.708;2023-05-27T05:17:01;102378.28;;;13.72;53.15
55517;BME280;41724;51.176;-0.708;2023-05-27T05:19:28;102377.57;;;13.69;52.77
55517;BME280;41724;51.176;-0.708;2023-05-27T05:21:56;102377.73;;;14.04;52.59
55517;BME280;41724;51.176;-0.708;2023-05-27T05:24:23;102377.16;;;14.55;52.55
55517;BME280;41724;51.176;-0.708;2023-05-27T05:26:50;102374.51;;;14.66;52.22
55517;BME280;41724;51.176;-0.708;2023-05-27T05:29:17;102374.38;;;14.66;52.19
55517;BME280;41724;51.176;-0.708;2023-05-27T05:31:44;102378.39;;;14.41;52.86
55517;BME280;41724;51.176;-0.708;2023-05-27T05:34:11;102377.23;;;14.60;53.06
55517;BME280;41724;51.176;-0.708;2023-05-27T05:36:38;102381.24;;;13.41;56.70
55517;BME280;41724;51.176;-0.708;2023-05-27T05:39:05;102378.21;;;13.76;56.73
55517;BME280;41724;51.176;-0.708;2023-05-27T05:41:32;102375.95;;;14.23;55.72
55517;BME280;41724;51.176;-0.708;2023-05-27T05:43:59;102373.14;;;14.58;55.00
55517;BME280;41724;51.176;-0.708;2023-05-27T05:46:26;102371.00;;;14.51;54.01
55517;BME280;41724;51.176;-0.708;2023-05-27T05:48:54;102370.11;;;14.18;55.75
55517;BME280;41724;51.176;-0.708;2023-05-27T05:51:21;102371.84;;;14.76;54.95
55517;BME280;41724;51.176;-0.708;2023-05-27T05:53:48;102370.00;;;14.91;54.33
55517;BME280;41724;51.176;-0.708;2023-05-27T05:56:15;102368.12;;;15.07;53.40
55517;BME280;41724;51.176;-0.708;2023-05-27T05:58:42;102369.28;;;15.29;53.16
55517;BME280;41724;51.176;-0.708;2023-05-27T06:01:09;102369.22;;;15.43;53.30
55517;BME280;41724;51.176;-0.708;2023-05-27T06:03:37;102366.06;;;15.39;52.78
55517;BME280;41724;51.176;-0.708;2023-05-27T06:06:04;102368.85;;;15.60;52.44
55517;BME280;41724;51.176;-0.708;2023-05-27T06:08:31;102370.37;;;15.26;52.79
55517;BME280;41724;51.176;-0.708;2023-05-27T06:10:59;102368.96;;;15.48;52.30
55517;BME280;41724;51.176;-0.708;2023-05-27T06:13:26;102371.26;;;15.70;52.04
55517;BME280;41724;51.176;-0.708;2023-05-27T06:15:53;102372.20;;;14.98;53.00
55517;BME280;41724;51.176;-0.708;2023-05-27T06:18:21;102372.78;;;15.05;53.60
55517;BME280;41724;51.176;-0.708;2023-05-27T06:20:48;102367.67;;;15.34;52.79
55517;BME280;41724;51.176;-0.708;2023-05-27T06:23:16;102370.05;;;14.47;55.28
55517;BME280;41724;51.176;-0.708;2023-05-27T06:25:44;102369.83;;;14.65;55.64
55517;BME280;41724;51.176;-0.708;2023-05-27T06:28:11;102366.26;;;15.19;54.22
55517;BME280;41724;51.176;-0.708;2023-05-27T06:30:38;102364.21;;;15.65;53.02
55517;BME280;41724;51.176;-0.708;2023-05-27T06:33:06;102361.97;;;15.80;52.25
55517;BME280;41724;51.176;-0.708;2023-05-27T06:35:33;102364.20;;;14.82;54.40
55517;BME280;41724;51.176;-0.708;2023-05-27T06:38:00;102357.14;;;15.07;54.08
55517;BME280;41724;51.176;-0.708;2023-05-27T06:40:27;102353.60;;;15.02;54.08
55517;BME280;41724;51.176;-0.708;2023-05-27T06:42:54;102349.35;;;15.11;53.69
55517;BME280;41724;51.176;-0.708;2023-05-27T06:45:22;102347.96;;;15.17;53.84
55517;BME280;41724;51.176;-0.708;2023-05-27T06:47:49;102342.65;;;14.94;55.16
55517;BME280;41724;51.176;-0.708;2023-05-27T06:50:15;102338.52;;;14.90;55.63
55517;BME280;41724;51.176;-0.708;2023-05-27T06:52:43;102340.34;;;14.37;56.30
55517;BME280;41724;51.176;-0.708;2023-05-27T06:55:10;102332.26;;;14.73;55.67
55517;BME280;41724;51.176;-0.708;2023-05-27T06:57:37;102335.72;;;14.23;56.42
55517;BME280;41724;51.176;-0.708;2023-05-27T07:00:06;102333.64;;;13.80;56.48
55517;BME280;41724;51.176;-0.708;2023-05-27T07:02:34;102333.35;;;14.68;57.42
55517;BME280;41724;51.176;-0.708;2023-05-27T07:05:01;102330.49;;;14.86;54.89
55517;BME280;41724;51.176;-0.708;2023-05-27T07:07:28;102324.59;;;15.37;54.05
55517;BME280;41724;51.176;-0.708;2023-05-27T07:09:55;102321.72;;;15.42;54.62
55517;BME280;41724;51.176;-0.708;2023-05-27T07:12:22;102320.72;;;15.42;53.78
55517;BME280;41724;51.176;-0.708;2023-05-27T07:14:49;102319.73;;;15.88;51.59
55517;BME280;41724;51.176;-0.708;2023-05-27T07:17:16;102318.19;;;16.33;51.33
55517;BME280;41724;51.176;-0.708;2023-05-27T07:19:43;102318.55;;;16.04;51.14
55517;BME280;41724;51.176;-0.708;2023-05-27T07:22:10;102312.35;;;14.93;53.35
55517;BME280;41724;51.176;-0.708;2023-05-27T07:24:38;102316.37;;;15.02;54.69
55517;BME280;41724;51.176;-0.708;2023-05-27T07:27:05;102314.74;;;14.98;54.52
55517;BME280;41724;51.176;-0.708;2023-05-27T07:29:32;102315.01;;;15.43;53.31
55517;BME280;41724;51.176;-0.708;2023-05-27T07:31:59;102311.16;;;15.86;53.64
55517;BME280;41724;51.176;-0.708;2023-05-27T07:34:26;102306.58;;;15.49;52.51
55517;BME280;41724;51.176;-0.708;2023-05-27T07:36:53;102306.41;;;15.67;51.06
55517;BME280;41724;51.176;-0.708;2023-05-27T07:39:20;102304.59;;;16.37;49.86
55517;BME280;41724;51.176;-0.708;2023-05-27T07:41:47;102299.68;;;16.18;50.24
55517;BME280;41724;51.176;-0.708;2023-05-27T07:44:14;102296.28;;;14.88;54.72
55517;BME280;41724;51.176;-0.708;2023-05-27T07:46:41;102287.82;;;16.02;53.76
55517;BME280;41724;51.176;-0.708;2023-05-27T07:49:07;102286.21;;;15.59;53.11
55517;BME280;41724;51.176;-0.708;2023-05-27T07:51:34;102282.96;;;16.07;52.40
55517;BME280;41724;51.176;-0.708;2023-05-27T07:54:03;102283.23;;;15.86;52.88
55517;BME280;41724;51.176;-0.708;2023-05-27T07:56:30;102281.68;;;16.45;51.68
55517;BME280;41724;51.176;-0.708;2023-05-27T07:58:57;102278.55;;;17.37;50.82
55517;BME280;41724;51.176;-0.708;2023-05-27T08:01:24;102277.77;;;16.76;49.82
55517;BME280;41724;51.176;-0.708;2023-05-27T08:03:51;102280.58;;;16.95;49.12
55517;BME280;41724;51.176;-0.708;2023-05-27T08:06:18;102279.88;;;17.23;47.31
55517;BME280;41724;51.176;-0.708;2023-05-27T08:08:45;102275.61;;;17.02;47.02
55517;BME280;41724;51.176;-0.708;2023-05-27T08:11:12;102273.54;;;16.33;50.17
55517;BME280;41724;51.176;-0.708;2023-05-27T08:13:39;102272.06;;;14.59;51.69
55517;BME280;41724;51.176;-0.708;2023-05-27T08:16:06;102268.05;;;14.86;52.36
55517;BME280;41724;51.176;-0.708;2023-05-27T08:18:33;102268.60;;;15.78;53.06
55517;BME280;41724;51.176;-0.708;2023-05-27T08:21:00;102268.97;;;15.61;49.86
55517;BME280;41724;51.176;-0.708;2023-05-27T08:23:27;102266.19;;;15.90;48.00
55517;BME280;41724;51.176;-0.708;2023-05-27T08:25:54;102269.82;;;16.47;48.19
55517;BME280;41724;51.176;-0.708;2023-05-27T08:28:21;102264.82;;;16.00;48.05
55517;BME280;41724;51.176;-0.708;2023-05-27T08:30:49;102262.29;;;16.12;50.03
55517;BME280;41724;51.176;-0.708;2023-05-27T08:33:15;102263.57;;;15.87;49.46
55517;BME280;41724;51.176;-0.708;2023-05-27T08:35:43;102260.35;;;16.54;48.34
55517;BME280;41724;51.176;-0.708;2023-05-27T08:38:10;102260.75;;;17.07;46.86
55517;BME280;41724;51.176;-0.708;2023-05-27T08:40:38;102255.43;;;17.46;46.72
55517;BME280;41724;51.176;-0.708;2023-05-27T08:43:06;102255.78;;;16.57;46.77
55517;BME280;41724;51.176;-0.708;2023-05-27T08:45:33;102253.83;;;16.33;49.15
55517;BME280;41724;51.176;-0.708;2023-05-27T08:48:02;102256.25;;;17.04;47.48
55517;BME280;41724;51.176;-0.708;2023-05-27T08:50:28;102250.50;;;15.69;50.03
55517;BME280;41724;51.176;-0.708;2023-05-27T08:52:56;102245.01;;;16.72;49.87
55517;BME280;41724;51.176;-0.708;2023-05-27T08:55:25;102242.10;;;17.21;48.32
55517;BME280;41724;51.176;-0.708;2023-05-27T08:57:55;102239.16;;;17.18;46.99
55517;BME280;41724;51.176;-0.708;2023-05-27T09:00:22;102235.35;;;16.84;46.85
55517;BME280;41724;51.176;-0.708;2023-05-27T09:02:50;102232.85;;;17.52;46.56
55517;BME280;41724;51.176;-0.708;2023-05-27T09:05:17;102229.68;;;17.52;46.11
55517;BME280;41724;51.176;-0.708;2023-05-27T09:07:44;102226.69;;;17.97;44.48
55517;BME280;41724;51.176;-0.708;2023-05-27T09:10:11;102229.08;;;17.90;45.48
55517;BME280;41724;51.176;-0.708;2023-05-27T09:12:42;102226.16;;;16.82;45.24
55517;BME280;41724;51.176;-0.708;2023-05-27T09:15:10;102223.41;;;17.18;47.24
55517;BME280;41724;51.176;-0.708;2023-05-27T09:17:40;102219.70;;;17.43;47.63
55517;BME280;41724;51.176;-0.708;2023-05-27T09:20:09;102213.15;;;17.64;47.71
55517;BME280;41724;51.176;-0.708;2023-05-27T09:22:38;102212.94;;;17.84;46.59
55517;BME280;41724;51.176;-0.708;2023-05-27T09:25:06;102209.11;;;17.88;45.70
55517;BME280;41724;51.176;-0.708;2023-05-27T09:27:32;102209.03;;;17.90;46.55
55517;BME280;41724;51.176;-0.708;2023-05-27T09:30:07;102205.19;;;17.99;45.96
55517;BME280;41724;51.176;-0.708;2023-05-27T09:32:34;102204.40;;;18.53;44.42
55517;BME280;41724;51.176;-0.708;2023-05-27T09:35:02;102201.42;;;18.57;44.28
55517;BME280;41724;51.176;-0.708;2023-05-27T09:37:30;102199.50;;;18.54;45.29
55517;BME280;41724;51.176;-0.708;2023-05-27T09:39:58;102202.44;;;17.80;44.81
55517;BME280;41724;51.176;-0.708;2023-05-27T09:42:26;102205.15;;;17.71;46.38
55517;BME280;41724;51.176;-0.708;2023-05-27T09:44:54;102200.77;;;17.94;44.36
55517;BME280;41724;51.176;-0.708;2023-05-27T09:47:21;102202.07;;;17.87;45.27
55517;BME280;41724;51.176;-0.708;2023-05-27T09:49:52;102201.72;;;17.13;44.39
55517;BME280;41724;51.176;-0.708;2023-05-27T09:52:20;102196.97;;;16.70;46.82
55517;BME280;41724;51.176;-0.708;2023-05-27T09:54:48;102197.61;;;17.70;48.73
55517;BME280;41724;51.176;-0.708;2023-05-27T09:57:16;102192.13;;;17.92;44.95
55517;BME280;41724;51.176;-0.708;2023-05-27T09:59:45;102184.03;;;18.15;47.16
55517;BME280;41724;51.176;-0.708;2023-05-27T10:02:18;102187.08;;;18.02;44.88
55517;BME280;41724;51.176;-0.708;2023-05-27T10:04:48;102183.61;;;17.92;44.48
55517;BME280;41724;51.176;-0.708;2023-05-27T10:07:17;102180.14;;;18.68;44.94
55517;BME280;41724;51.176;-0.708;2023-05-27T10:09:45;102174.93;;;17.93;44.30
55517;BME280;41724;51.176;-0.708;2023-05-27T10:12:14;102169.39;;;18.80;44.12
55517;BME280;41724;51.176;-0.708;2023-05-27T10:14:42;102165.90;;;17.85;45.05
55517;BME280;41724;51.176;-0.708;2023-05-27T10:17:09;102164.66;;;18.70;44.19
55517;BME280;41724;51.176;-0.708;2023-05-27T10:19:36;102158.64;;;18.86;44.52
55517;BME280;41724;51.176;-0.708;2023-05-27T10:22:11;102152.47;;;19.38;42.15
55517;BME280;41724;51.176;-0.708;2023-05-27T10:24:39;102149.79;;;19.49;41.53
55517;BME280;41724;51.176;-0.708;2023-05-27T10:27:06;102148.46;;;19.27;43.42
55517;BME280;41724;51.176;-0.708;2023-05-27T10:29:37;102151.46;;;19.80;43.33
55517;BME280;41724;51.176;-0.708;2023-05-27T10:32:05;102148.94;;;20.08;42.84
55517;BME280;41724;51.176;-0.708;2023-05-27T10:34:34;102144.24;;;19.95;43.01
55517;BME280;41724;51.176;-0.708;2023-05-27T10:37:02;102143.04;;;19.99;42.27
55517;BME280;41724;51.176;-0.708;2023-05-27T10:39:29;102135.19;;;20.63;40.58
55517;BME280;41724;51.176;-0.708;2023-05-27T10:41:56;102130.75;;;20.46;41.23
55517;BME280;41724;51.176;-0.708;2023-05-27T10:44:27;102134.02;;;20.00;43.15
55517;BME280;41724;51.176;-0.708;2023-05-27T10:47:00;102131.46;;;20.45;40.68
55517;BME280;41724;51.176;-0.708;2023-05-27T10:49:29;102131.58;;;20.16;41.09
55517;BME280;41724;51.176;-0.708;2023-05-27T10:52:00;102130.95;;;20.54;39.91
55517;BME280;41724;51.176;-0.708;2023-05-27T10:54:33;102128.95;;;19.30;40.76
55517;BME280;41724;51.176;-0.708;2023-05-27T10:57:02;102123.16;;;18.75;40.74
55517;BME280;41724;51.176;-0.708;2023-05-27T10:59:40;102122.05;;;18.51;38.88
55517;BME280;41724;51.176;-0.708;2023-05-27T11:02:13;102112.26;;;19.23;38.68
55517;BME280;41724;51.176;-0.708;2023-05-27T11:04:40;102105.40;;;19.44;38.50
55517;BME280;41724;51.176;-0.708;2023-05-27T11:07:08;102107.17;;;20.22;39.81
55517;BME280;41724;51.176;-0.708;2023-05-27T11:09:43;102103.82;;;20.42;38.99
55517;BME280;41724;51.176;-0.708;2023-05-27T11:12:13;102103.18;;;19.46;40.03
55517;BME280;41724;51.176;-0.708;2023-05-27T11:14:41;102104.07;;;19.67;38.21
55517;BME280;41724;51.176;-0.708;2023-05-27T11:17:09;102099.22;;;20.07;38.57
55517;BME280;41724;51.176;-0.708;2023-05-27T11:19:38;102091.48;;;20.75;35.77
55517;BME280;41724;51.176;-0.708;2023-05-27T11:22:06;102089.12;;;20.20;37.15
55517;BME280;41724;51.176;-0.708;2023-05-27T11:24:33;102080.99;;;20.78;38.04
55517;BME280;41724;51.176;-0.708;2023-05-27T11:27:00;102078.95;;;20.43;35.94
55517;BME280;41724;51.176;-0.708;2023-05-27T11:29:34;102080.03;;;20.18;37.40
55517;BME280;41724;51.176;-0.708;2023-05-27T11:32:01;102072.76;;;19.81;39.58
55517;BME280;41724;51.176;-0.708;2023-05-27T11:34:29;102071.66;;;20.07;40.99
55517;BME280;41724;51.176;-0.708;2023-05-27T11:36:55;102065.19;;;20.65;41.17
55517;BME280;41724;51.176;-0.708;2023-05-27T11:39:27;102060.06;;;21.95;38.46
55517;BME280;41724;51.176;-0.708;2023-05-27T11:41:55;102059.25;;;20.73;37.34
55517;BME280;41724;51.176;-0.708;2023-05-27T11:44:22;102052.87;;;21.17;37.76
55517;BME280;41724;51.176;-0.708;2023-05-27T11:46:52;102048.15;;;21.21;37.05
55517;BME280;41724;51.176;-0.708;2023-05-27T11:49:19;102049.01;;;21.38;39.26
55517;BME280;41724;51.176;-0.708;2023-05-27T11:51:47;102039.24;;;21.87;38.96
55517;BME280;41724;51.176;-0.708;2023-05-27T11:54:18;102038.31;;;22.94;37.12
55517;BME280;41724;51.176;-0.708;2023-05-27T11:56:45;102029.84;;;23.49;34.70
55517;BME280;41724;51.176;-0.708;2023-05-27T11:59:13;102024.37;;;23.01;32.63
55517;BME280;41724;51.176;-0.708;2023-05-27T12:01:40;102020.61;;;23.71;33.15
55517;BME280;41724;51.176;-0.708;2023-05-27T12:04:07;102019.40;;;23.34;33.73
55517;BME280;41724;51.176;-0.708;2023-05-27T12:06:36;102013.76;;;24.07;31.06
55517;BME280;41724;51.176;-0.708;2023-05-27T12:09:04;102013.16;;;22.91;30.72
55517;BME280;41724;51.176;-0.708;2023-05-27T12:11:32;102014.97;;;24.02;34.31
55517;BME280;41724;51.176;-0.708;2023-05-27T12:14:00;102011.32;;;24.76;33.65
55517;BME280;41724;51.176;-0.708;2023-05-27T12:16:27;102007.02;;;24.39;30.20
55517;BME280;41724;51.176;-0.708;2023-05-27T12:18:54;101999.39;;;24.22;29.26
55517;BME280;41724;51.176;-0.708;2023-05-27T12:21:23;101998.64;;;24.14;31.26
55517;BME280;41724;51.176;-0.708;2023-05-27T12:23:50;101987.87;;;25.29;34.05
55517;BME280;41724;51.176;-0.708;2023-05-27T12:26:18;101987.06;;;25.33;30.50
55517;BME280;41724;51.176;-0.708;2023-05-27T12:28:45;101981.41;;;24.51;29.71
55517;BME280;41724;51.176;-0.708;2023-05-27T12:31:13;101978.04;;;24.58;30.57
55517;BME280;41724;51.176;-0.708;2023-05-27T12:33:42;101980.89;;;24.95;29.71
55517;BME280;41724;51.176;-0.708;2023-05-27T12:36:09;101976.98;;;24.65;29.51
55517;BME280;41724;51.176;-0.708;2023-05-27T12:38:37;101977.75;;;24.99;28.57
55517;BME280;41724;51.176;-0.708;2023-05-27T12:41:04;101968.23;;;25.64;28.69
55517;BME280;41724;51.176;-0.708;2023-05-27T12:43:32;101962.98;;;26.94;28.58